Broad Channel, New York
Current Conditions -  °F | °C
As of 8:51 AM on Monday 20 Oct 2014 (Local Time) from KJFK Reporting Station
Broken Clouds Broken Clouds  
Wind Chill: 45°   Ceiling: 26000
Heat Index: 49°   Visibility: 10mi
Dew Point: 32°   Wind: 10mph
Humidity: 52%   Direction: 260°W
Pressure: 30.14"   Gusts: NA
Location:  40.6184°N, 73.8256°W
Report Text: KJFK 201251Z 26009KT 10SM FEW120 BKN260 09/00 A3014 RMK AO2 SLP206 T00940000 $
Loading
Personal Weather Stations






























Interactive Weather Map
Tropical Storm Tracking
New forecast layout! Learn more

10-Day Weather Forecast

Advertisements
Track Severe Weather on mobile